sensor_id;sensor_type;location;lat;lon;timestamp;P1;durP1;ratioP1;P2;durP2;ratioP2
17872;SDS011;36318;42.620;23.338;2022-09-01T00:02:07;16.97;;;15.27;;
17872;SDS011;36318;42.620;23.338;2022-09-01T00:04:34;18.60;;;15.63;;
17872;SDS011;36318;42.620;23.338;2022-09-01T00:07:03;17.37;;;15.67;;
17872;SDS011;36318;42.620;23.338;2022-09-01T00:09:30;16.90;;;15.17;;
17872;SDS011;36318;42.620;23.338;2022-09-01T00:11:59;17.67;;;15.77;;
17872;SDS011;36318;42.620;23.338;2022-09-01T00:14:27;18.47;;;14.90;;
17872;SDS011;36318;42.620;23.338;2022-09-01T00:16:56;17.87;;;14.90;;
17872;SDS011;36318;42.620;23.338;2022-09-01T00:19:23;17.30;;;15.53;;
17872;SDS011;36318;42.620;23.338;2022-09-01T00:21:50;25.10;;;15.67;;
17872;SDS011;36318;42.620;23.338;2022-09-01T00:24:17;19.53;;;16.60;;
17872;SDS011;36318;42.620;23.338;2022-09-01T00:26:45;18.10;;;15.37;;
17872;SDS011;36318;42.620;23.338;2022-09-01T00:29:13;17.93;;;16.07;;
17872;SDS011;36318;42.620;23.338;2022-09-01T00:31:41;18.47;;;16.60;;
17872;SDS011;36318;42.620;23.338;2022-09-01T00:34:08;21.53;;;16.23;;
17872;SDS011;36318;42.620;23.338;2022-09-01T00:36:35;18.37;;;15.93;;
17872;SDS011;36318;42.620;23.338;2022-09-01T00:39:03;20.60;;;16.07;;
17872;SDS011;36318;42.620;23.338;2022-09-01T00:41:32;18.43;;;15.77;;
17872;SDS011;36318;42.620;23.338;2022-09-01T00:44:03;18.27;;;16.40;;
17872;SDS011;36318;42.620;23.338;2022-09-01T00:46:34;19.40;;;17.40;;
17872;SDS011;36318;42.620;23.338;2022-09-01T00:49:03;20.70;;;18.03;;
17872;SDS011;36318;42.620;23.338;2022-09-01T00:51:35;19.33;;;17.23;;
17872;SDS011;36318;42.620;23.338;2022-09-01T00:54:04;18.47;;;16.57;;
17872;SDS011;36318;42.620;23.338;2022-09-01T00:56:34;17.83;;;15.93;;
17872;SDS011;36318;42.620;23.338;2022-09-01T00:59:04;21.10;;;16.60;;
17872;SDS011;36318;42.620;23.338;2022-09-01T01:01:34;19.83;;;17.70;;
17872;SDS011;36318;42.620;23.338;2022-09-01T01:04:01;18.63;;;16.57;;
17872;SDS011;36318;42.620;23.338;2022-09-01T01:06:29;19.80;;;17.80;;
17872;SDS011;36318;42.620;23.338;2022-09-01T01:08:57;18.70;;;16.77;;
17872;SDS011;36318;42.620;23.338;2022-09-01T01:11:27;26.60;;;17.87;;
17872;SDS011;36318;42.620;23.338;2022-09-01T01:13:56;20.17;;;17.73;;
17872;SDS011;36318;42.620;23.338;2022-09-01T01:16:26;18.97;;;16.97;;
17872;SDS011;36318;42.620;23.338;2022-09-01T01:18:55;19.83;;;17.40;;
17872;SDS011;36318;42.620;23.338;2022-09-01T01:21:24;20.00;;;17.93;;
17872;SDS011;36318;42.620;23.338;2022-09-01T01:24:17;20.70;;;18.67;;
17872;SDS011;36318;42.620;23.338;2022-09-01T01:26:48;21.77;;;19.03;;
17872;SDS011;36318;42.620;23.338;2022-09-01T01:29:15;20.43;;;18.33;;
17872;SDS011;36318;42.620;23.338;2022-09-01T01:31:43;22.00;;;19.60;;
17872;SDS011;36318;42.620;23.338;2022-09-01T01:34:11;26.87;;;21.77;;
17872;SDS011;36318;42.620;23.338;2022-09-01T01:36:39;23.33;;;20.83;;
17872;SDS011;36318;42.620;23.338;2022-09-01T01:39:06;29.30;;;20.87;;
17872;SDS011;36318;42.620;23.338;2022-09-01T01:41:36;22.77;;;20.33;;
17872;SDS011;36318;42.620;23.338;2022-09-01T01:44:06;25.13;;;21.00;;
17872;SDS011;36318;42.620;23.338;2022-09-01T01:46:34;22.67;;;20.37;;
17872;SDS011;36318;42.620;23.338;2022-09-01T01:49:02;25.23;;;20.80;;
17872;SDS011;36318;42.620;23.338;2022-09-01T01:51:29;23.03;;;20.73;;
17872;SDS011;36318;42.620;23.338;2022-09-01T01:53:57;23.97;;;21.53;;
17872;SDS011;36318;42.620;23.338;2022-09-01T01:56:29;24.40;;;21.77;;
17872;SDS011;36318;42.620;23.338;2022-09-01T01:58:59;27.53;;;24.73;;
17872;SDS011;36318;42.620;23.338;2022-09-01T02:01:27;29.87;;;26.53;;
17872;SDS011;36318;42.620;23.338;2022-09-01T02:03:56;29.43;;;26.13;;
17872;SDS011;36318;42.620;23.338;2022-09-01T02:06:24;27.77;;;24.10;;
17872;SDS011;36318;42.620;23.338;2022-09-01T02:08:53;26.70;;;24.00;;
17872;SDS011;36318;42.620;23.338;2022-09-01T02:11:22;29.90;;;24.43;;
17872;SDS011;36318;42.620;23.338;2022-09-01T02:13:50;28.90;;;25.60;;
17872;SDS011;36318;42.620;23.338;2022-09-01T02:16:23;29.37;;;23.80;;
17872;SDS011;36318;42.620;23.338;2022-09-01T02:18:51;30.77;;;24.97;;
17872;SDS011;36318;42.620;23.338;2022-09-01T02:21:19;26.93;;;23.80;;
17872;SDS011;36318;42.620;23.338;2022-09-01T02:23:49;27.80;;;22.67;;
17872;SDS011;36318;42.620;23.338;2022-09-01T02:26:25;21.53;;;19.37;;
17872;SDS011;36318;42.620;23.338;2022-09-01T02:28:55;22.37;;;20.00;;
17872;SDS011;36318;42.620;23.338;2022-09-01T02:31:27;21.80;;;19.50;;
17872;SDS011;36318;42.620;23.338;2022-09-01T02:33:56;24.20;;;19.90;;
17872;SDS011;36318;42.620;23.338;2022-09-01T02:36:25;21.90;;;19.60;;
17872;SDS011;36318;42.620;23.338;2022-09-01T02:38:52;19.33;;;16.93;;
17872;SDS011;36318;42.620;23.338;2022-09-01T02:41:20;22.73;;;18.40;;
17872;SDS011;36318;42.620;23.338;2022-09-01T02:43:49;19.33;;;17.43;;
17872;SDS011;36318;42.620;23.338;2022-09-01T02:46:16;22.17;;;17.00;;
17872;SDS011;36318;42.620;23.338;2022-09-01T02:48:48;17.30;;;15.50;;
17872;SDS011;36318;42.620;23.338;2022-09-01T02:51:17;19.33;;;16.43;;
17872;SDS011;36318;42.620;23.338;2022-09-01T02:53:45;19.67;;;16.93;;
17872;SDS011;36318;42.620;23.338;2022-09-01T02:56:16;18.63;;;16.37;;
17872;SDS011;36318;42.620;23.338;2022-09-01T02:58:47;19.37;;;16.87;;
17872;SDS011;36318;42.620;23.338;2022-09-01T03:01:15;18.57;;;15.17;;
17872;SDS011;36318;42.620;23.338;2022-09-01T03:03:44;20.40;;;15.13;;
17872;SDS011;36318;42.620;23.338;2022-09-01T03:06:12;18.57;;;16.13;;
17872;SDS011;36318;42.620;23.338;2022-09-01T03:08:42;17.43;;;15.53;;
17872;SDS011;36318;42.620;23.338;2022-09-01T03:11:08;17.27;;;14.83;;
17872;SDS011;36318;42.620;23.338;2022-09-01T03:13:36;20.03;;;16.13;;
17872;SDS011;36318;42.620;23.338;2022-09-01T03:16:04;19.40;;;16.20;;
17872;SDS011;36318;42.620;23.338;2022-09-01T03:18:31;19.40;;;16.70;;
17872;SDS011;36318;42.620;23.338;2022-09-01T03:20:58;17.53;;;15.10;;
17872;SDS011;36318;42.620;23.338;2022-09-01T03:23:28;17.97;;;16.03;;
17872;SDS011;36318;42.620;23.338;2022-09-01T03:25:57;20.70;;;15.00;;
17872;SDS011;36318;42.620;23.338;2022-09-01T03:28:24;17.93;;;16.23;;
17872;SDS011;36318;42.620;23.338;2022-09-01T03:30:52;18.27;;;16.37;;
17872;SDS011;36318;42.620;23.338;2022-09-01T03:33:21;24.07;;;17.40;;
17872;SDS011;36318;42.620;23.338;2022-09-01T03:35:49;19.73;;;15.63;;
17872;SDS011;36318;42.620;23.338;2022-09-01T03:38:16;18.27;;;16.23;;
17872;SDS011;36318;42.620;23.338;2022-09-01T03:40:48;21.43;;;16.67;;
17872;SDS011;36318;42.620;23.338;2022-09-01T03:43:16;19.27;;;16.70;;
17872;SDS011;36318;42.620;23.338;2022-09-01T03:45:47;19.80;;;17.70;;
17872;SDS011;36318;42.620;23.338;2022-09-01T03:48:14;25.13;;;18.53;;
17872;SDS011;36318;42.620;23.338;2022-09-01T03:50:42;24.60;;;17.00;;
17872;SDS011;36318;42.620;23.338;2022-09-01T03:53:13;24.23;;;18.73;;
17872;SDS011;36318;42.620;23.338;2022-09-01T03:55:42;21.83;;;18.10;;
17872;SDS011;36318;42.620;23.338;2022-09-01T03:58:12;21.30;;;19.17;;
17872;SDS011;36318;42.620;23.338;2022-09-01T04:00:44;27.13;;;19.67;;
17872;SDS011;36318;42.620;23.338;2022-09-01T04:03:14;21.27;;;19.17;;
17872;SDS011;36318;42.620;23.338;2022-09-01T04:05:46;22.10;;;19.70;;
17872;SDS011;36318;42.620;23.338;2022-09-01T04:08:13;23.13;;;18.87;;
17872;SDS011;36318;42.620;23.338;2022-09-01T04:10:41;22.93;;;18.27;;
17872;SDS011;36318;42.620;23.338;2022-09-01T04:13:15;20.93;;;18.43;;
17872;SDS011;36318;42.620;23.338;2022-09-01T04:15:43;20.83;;;18.63;;
17872;SDS011;36318;42.620;23.338;2022-09-01T04:18:10;24.03;;;18.70;;
17872;SDS011;36318;42.620;23.338;2022-09-01T04:20:45;22.87;;;18.77;;
17872;SDS011;36318;42.620;23.338;2022-09-01T04:23:14;21.13;;;19.00;;
17872;SDS011;36318;42.620;23.338;2022-09-01T04:25:46;21.23;;;18.07;;
17872;SDS011;36318;42.620;23.338;2022-09-01T04:28:16;25.17;;;18.20;;
17872;SDS011;36318;42.620;23.338;2022-09-01T04:30:49;20.77;;;17.63;;
17872;SDS011;36318;42.620;23.338;2022-09-01T04:33:19;25.47;;;18.90;;
17872;SDS011;36318;42.620;23.338;2022-09-01T04:35:46;20.93;;;18.77;;
17872;SDS011;36318;42.620;23.338;2022-09-01T04:38:14;23.40;;;20.43;;
17872;SDS011;36318;42.620;23.338;2022-09-01T04:40:42;21.90;;;18.57;;
17872;SDS011;36318;42.620;23.338;2022-09-01T04:43:09;27.13;;;22.97;;
17872;SDS011;36318;42.620;23.338;2022-09-01T04:45:37;29.40;;;23.23;;
17872;SDS011;36318;42.620;23.338;2022-09-01T04:48:05;29.03;;;22.70;;
17872;SDS011;36318;42.620;23.338;2022-09-01T04:50:32;26.23;;;23.50;;
17872;SDS011;36318;42.620;23.338;2022-09-01T04:52:59;28.57;;;24.17;;
17872;SDS011;36318;42.620;23.338;2022-09-01T04:55:28;27.63;;;23.00;;
17872;SDS011;36318;42.620;23.338;2022-09-01T04:57:56;27.87;;;22.73;;
17872;SDS011;36318;42.620;23.338;2022-09-01T05:00:26;30.40;;;23.87;;
17872;SDS011;36318;42.620;23.338;2022-09-01T05:02:57;24.77;;;22.17;;
17872;SDS011;36318;42.620;23.338;2022-09-01T05:05:29;26.20;;;22.57;;
17872;SDS011;36318;42.620;23.338;2022-09-01T05:08:04;24.90;;;21.43;;
17872;SDS011;36318;42.620;23.338;2022-09-01T05:10:31;25.13;;;20.87;;
17872;SDS011;36318;42.620;23.338;2022-09-01T05:13:02;26.30;;;21.97;;
17872;SDS011;36318;42.620;23.338;2022-09-01T05:15:34;28.07;;;21.43;;
17872;SDS011;36318;42.620;23.338;2022-09-01T05:18:04;26.40;;;22.10;;
17872;SDS011;36318;42.620;23.338;2022-09-01T05:20:37;24.07;;;20.77;;
17872;SDS011;36318;42.620;23.338;2022-09-01T05:23:07;24.13;;;21.67;;
17872;SDS011;36318;42.620;23.338;2022-09-01T05:25:37;25.20;;;21.83;;
17872;SDS011;36318;42.620;23.338;2022-09-01T05:28:06;23.67;;;20.47;;
17872;SDS011;36318;42.620;23.338;2022-09-01T05:30:37;27.53;;;21.73;;
17872;SDS011;36318;42.620;23.338;2022-09-01T05:33:06;27.13;;;20.77;;
17872;SDS011;36318;42.620;23.338;2022-09-01T05:35:36;25.67;;;21.20;;
17872;SDS011;36318;42.620;23.338;2022-09-01T05:38:05;24.10;;;19.87;;
17872;SDS011;36318;42.620;23.338;2022-09-01T05:40:38;25.73;;;19.77;;
17872;SDS011;36318;42.620;23.338;2022-09-01T05:43:06;22.37;;;20.27;;
17872;SDS011;36318;42.620;23.338;2022-09-01T05:45:37;24.03;;;19.83;;
17872;SDS011;36318;42.620;23.338;2022-09-01T05:48:08;22.37;;;19.60;;
17872;SDS011;36318;42.620;23.338;2022-09-01T05:50:38;20.50;;;18.20;;
17872;SDS011;36318;42.620;23.338;2022-09-01T05:53:07;19.00;;;16.83;;
17872;SDS011;36318;42.620;23.338;2022-09-01T05:55:40;21.70;;;17.33;;
17872;SDS011;36318;42.620;23.338;2022-09-01T05:58:09;24.23;;;17.03;;
17872;SDS011;36318;42.620;23.338;2022-09-01T06:00:39;20.73;;;16.80;;
17872;SDS011;36318;42.620;23.338;2022-09-01T06:03:08;20.47;;;17.50;;
17872;SDS011;36318;42.620;23.338;2022-09-01T06:05:36;21.97;;;18.27;;
17872;SDS011;36318;42.620;23.338;2022-09-01T06:08:04;19.60;;;17.20;;
17872;SDS011;36318;42.620;23.338;2022-09-01T06:10:32;25.00;;;17.90;;
17872;SDS011;36318;42.620;23.338;2022-09-01T06:13:04;23.50;;;17.90;;
17872;SDS011;36318;42.620;23.338;2022-09-01T06:15:32;20.40;;;17.17;;
17872;SDS011;36318;42.620;23.338;2022-09-01T06:18:00;25.30;;;17.17;;
17872;SDS011;36318;42.620;23.338;2022-09-01T06:20:28;20.23;;;16.60;;
17872;SDS011;36318;42.620;23.338;2022-09-01T06:22:55;27.03;;;16.37;;
17872;SDS011;36318;42.620;23.338;2022-09-01T06:25:22;27.60;;;16.00;;
17872;SDS011;36318;42.620;23.338;2022-09-01T06:27:55;18.63;;;14.87;;
17872;SDS011;36318;42.620;23.338;2022-09-01T06:30:23;16.53;;;13.70;;
17872;SDS011;36318;42.620;23.338;2022-09-01T06:32:50;20.30;;;13.50;;
17872;SDS011;36318;42.620;23.338;2022-09-01T06:35:18;16.67;;;12.50;;
17872;SDS011;36318;42.620;23.338;2022-09-01T06:37:47;15.17;;;11.83;;
17872;SDS011;36318;42.620;23.338;2022-09-01T06:40:14;15.43;;;11.10;;
17872;SDS011;36318;42.620;23.338;2022-09-01T06:42:42;14.90;;;11.23;;
17872;SDS011;36318;42.620;23.338;2022-09-01T06:45:11;15.57;;;12.37;;
17872;SDS011;36318;42.620;23.338;2022-09-01T06:47:39;16.33;;;11.37;;
17872;SDS011;36318;42.620;23.338;2022-09-01T06:50:09;14.27;;;12.00;;
17872;SDS011;36318;42.620;23.338;2022-09-01T06:52:39;14.00;;;11.43;;
17872;SDS011;36318;42.620;23.338;2022-09-01T06:55:09;15.98;;;12.07;;
17872;SDS011;36318;42.620;23.338;2022-09-01T06:57:36;13.88;;;12.02;;
17872;SDS011;36318;42.620;23.338;2022-09-01T07:00:05;17.10;;;11.85;;
17872;SDS011;36318;42.620;23.338;2022-09-01T07:02:42;18.42;;;12.38;;
17872;SDS011;36318;42.620;23.338;2022-09-01T07:05:09;16.08;;;11.70;;
17872;SDS011;36318;42.620;23.338;2022-09-01T07:07:41;12.95;;;11.57;;
17872;SDS011;36318;42.620;23.338;2022-09-01T07:10:17;13.73;;;11.45;;
17872;SDS011;36318;42.620;23.338;2022-09-01T07:12:44;14.38;;;12.93;;
17872;SDS011;36318;42.620;23.338;2022-09-01T07:15:12;16.73;;;12.07;;
17872;SDS011;36318;42.620;23.338;2022-09-01T07:17:42;19.15;;;14.48;;
17872;SDS011;36318;42.620;23.338;2022-09-01T07:20:13;19.55;;;13.73;;
17872;SDS011;36318;42.620;23.338;2022-09-01T07:22:40;14.52;;;13.00;;
17872;SDS011;36318;42.620;23.338;2022-09-01T07:25:07;13.50;;;12.30;;
17872;SDS011;36318;42.620;23.338;2022-09-01T07:27:37;18.02;;;13.60;;
17872;SDS011;36318;42.620;23.338;2022-09-01T07:30:05;18.20;;;14.15;;
17872;SDS011;36318;42.620;23.338;2022-09-01T07:32:36;17.58;;;13.23;;
17872;SDS011;36318;42.620;23.338;2022-09-01T07:35:09;18.42;;;15.20;;
17872;SDS011;36318;42.620;23.338;2022-09-01T07:37:36;14.85;;;13.25;;
17872;SDS011;36318;42.620;23.338;2022-09-01T07:40:04;15.15;;;13.52;;
17872;SDS011;36318;42.620;23.338;2022-09-01T07:42:32;21.75;;;12.88;;
17872;SDS011;36318;42.620;23.338;2022-09-01T07:45:00;15.68;;;13.40;;
17872;SDS011;36318;42.620;23.338;2022-09-01T07:47:33;16.83;;;12.48;;
17872;SDS011;36318;42.620;23.338;2022-09-01T07:50:01;18.67;;;14.35;;
17872;SDS011;36318;42.620;23.338;2022-09-01T07:52:32;16.48;;;12.65;;
17872;SDS011;36318;42.620;23.338;2022-09-01T07:55:00;14.88;;;12.88;;
17872;SDS011;36318;42.620;23.338;2022-09-01T07:57:26;17.60;;;12.40;;
17872;SDS011;36318;42.620;23.338;2022-09-01T07:59:53;19.95;;;11.43;;
17872;SDS011;36318;42.620;23.338;2022-09-01T08:02:23;16.83;;;13.05;;
17872;SDS011;36318;42.620;23.338;2022-09-01T08:04:52;15.82;;;12.50;;
17872;SDS011;36318;42.620;23.338;2022-09-01T08:07:19;18.73;;;12.85;;
17872;SDS011;36318;42.620;23.338;2022-09-01T08:09:46;19.15;;;15.00;;
17872;SDS011;36318;42.620;23.338;2022-09-01T08:12:13;20.45;;;12.13;;
17872;SDS011;36318;42.620;23.338;2022-09-01T08:14:40;15.63;;;13.52;;
17872;SDS011;36318;42.620;23.338;2022-09-01T08:17:06;22.70;;;18.52;;
17872;SDS011;36318;42.620;23.338;2022-09-01T08:19:35;22.88;;;16.77;;
17872;SDS011;36318;42.620;23.338;2022-09-01T08:22:01;21.23;;;14.20;;
17872;SDS011;36318;42.620;23.338;2022-09-01T08:24:28;19.38;;;14.93;;
17872;SDS011;36318;42.620;23.338;2022-09-01T08:26:56;17.63;;;15.52;;
17872;SDS011;36318;42.620;23.338;2022-09-01T08:29:22;18.95;;;14.52;;
17872;SDS011;36318;42.620;23.338;2022-09-01T08:31:49;18.58;;;14.30;;
17872;SDS011;36318;42.620;23.338;2022-09-01T08:34:18;18.75;;;13.93;;
17872;SDS011;36318;42.620;23.338;2022-09-01T08:36:46;16.00;;;14.48;;
17872;SDS011;36318;42.620;23.338;2022-09-01T08:39:13;21.55;;;12.82;;
17872;SDS011;36318;42.620;23.338;2022-09-01T08:41:41;16.45;;;13.55;;
17872;SDS011;36318;42.620;23.338;2022-09-01T08:44:12;20.73;;;14.00;;
17872;SDS011;36318;42.620;23.338;2022-09-01T08:46:46;16.05;;;14.23;;
17872;SDS011;36318;42.620;23.338;2022-09-01T08:49:20;20.08;;;13.38;;
17872;SDS011;36318;42.620;23.338;2022-09-01T08:51:52;14.98;;;13.07;;
17872;SDS011;36318;42.620;23.338;2022-09-01T08:54:23;16.88;;;14.18;;
17872;SDS011;36318;42.620;23.338;2022-09-01T08:56:58;17.30;;;13.27;;
17872;SDS011;36318;42.620;23.338;2022-09-01T08:59:27;17.50;;;13.50;;
17872;SDS011;36318;42.620;23.338;2022-09-01T09:01:57;18.45;;;13.07;;
17872;SDS011;36318;42.620;23.338;2022-09-01T09:04:39;19.13;;;15.15;;
17872;SDS011;36318;42.620;23.338;2022-09-01T09:07:22;18.08;;;13.70;;
17872;SDS011;36318;42.620;23.338;2022-09-01T09:10:04;19.92;;;15.98;;
17872;SDS011;36318;42.620;23.338;2022-09-01T09:12:38;21.58;;;14.40;;
17872;SDS011;36318;42.620;23.338;2022-09-01T09:15:21;24.48;;;15.25;;
17872;SDS011;36318;42.620;23.338;2022-09-01T09:17:58;20.13;;;14.50;;
17872;SDS011;36318;42.620;23.338;2022-09-01T09:20:41;19.63;;;15.48;;
17872;SDS011;36318;42.620;23.338;2022-09-01T09:23:14;28.10;;;16.52;;
17872;SDS011;36318;42.620;23.338;2022-09-01T09:25:49;46.05;;;34.67;;
17872;SDS011;36318;42.620;23.338;2022-09-01T09:28:16;21.45;;;14.43;;
17872;SDS011;36318;42.620;23.338;2022-09-01T09:30:43;24.30;;;15.75;;
17872;SDS011;36318;42.620;23.338;2022-09-01T09:33:10;19.73;;;14.85;;
17872;SDS011;36318;42.620;23.338;2022-09-01T09:36:18;16.35;;;13.98;;
17872;SDS011;36318;42.620;23.338;2022-09-01T09:38:49;20.55;;;14.15;;
17872;SDS011;36318;42.620;23.338;2022-09-01T09:41:32;16.52;;;11.00;;
17872;SDS011;36318;42.620;23.338;2022-09-01T09:43:59;13.82;;;12.05;;
17872;SDS011;36318;42.620;23.338;2022-09-01T09:46:33;17.67;;;11.02;;
17872;SDS011;36318;42.620;23.338;2022-09-01T09:49:06;11.45;;;10.35;;
17872;SDS011;36318;42.620;23.338;2022-09-01T09:51:40;17.33;;;10.55;;
17872;SDS011;36318;42.620;23.338;2022-09-01T09:54:11;15.40;;;9.93;;
17872;SDS011;36318;42.620;23.338;2022-09-01T09:56:41;11.38;;;10.07;;
17872;SDS011;36318;42.620;23.338;2022-09-01T09:59:21;12.77;;;10.43;;
17872;SDS011;36318;42.620;23.338;2022-09-01T10:01:54;13.13;;;11.73;;
17872;SDS011;36318;42.620;23.338;2022-09-01T10:04:30;14.77;;;11.68;;
17872;SDS011;36318;42.620;23.338;2022-09-01T10:06:59;17.33;;;11.38;;
17872;SDS011;36318;42.620;23.338;2022-09-01T10:09:35;15.48;;;11.77;;
17872;SDS011;36318;42.620;23.338;2022-09-01T10:12:02;12.65;;;11.35;;
17872;SDS011;36318;42.620;23.338;2022-09-01T10:14:32;20.00;;;11.57;;
17872;SDS011;36318;42.620;23.338;2022-09-01T10:17:05;15.93;;;12.50;;
17872;SDS011;36318;42.620;23.338;2022-09-01T10:19:46;17.60;;;12.95;;
17872;SDS011;36318;42.620;23.338;2022-09-01T10:22:18;15.70;;;12.45;;
17872;SDS011;36318;42.620;23.338;2022-09-01T10:24:47;14.98;;;13.23;;
17872;SDS011;36318;42.620;23.338;2022-09-01T10:27:15;15.13;;;12.63;;
17872;SDS011;36318;42.620;23.338;2022-09-01T10:29:47;13.90;;;12.20;;
17872;SDS011;36318;42.620;23.338;2022-09-01T10:32:19;20.27;;;14.05;;
17872;SDS011;36318;42.620;23.338;2022-09-01T10:34:50;15.20;;;13.18;;
17872;SDS011;36318;42.620;23.338;2022-09-01T10:37:18;20.88;;;12.88;;
17872;SDS011;36318;42.620;23.338;2022-09-01T10:42:43;17.90;;;12.38;;
17872;SDS011;36318;42.620;23.338;2022-09-01T10:45:15;16.95;;;12.55;;
17872;SDS011;36318;42.620;23.338;2022-09-01T10:47:44;16.67;;;11.60;;
17872;SDS011;36318;42.620;23.338;2022-09-01T10:52:59;18.90;;;12.85;;
17872;SDS011;36318;42.620;23.338;2022-09-01T10:55:31;17.10;;;12.52;;
17872;SDS011;36318;42.620;23.338;2022-09-01T11:01:24;19.05;;;12.73;;
17872;SDS011;36318;42.620;23.338;2022-09-01T11:07:30;19.55;;;13.73;;
17872;SDS011;36318;42.620;23.338;2022-09-01T11:13:00;15.38;;;12.05;;
17872;SDS011;36318;42.620;23.338;2022-09-01T11:15:43;18.38;;;12.10;;
17872;SDS011;36318;42.620;23.338;2022-09-01T11:18:13;13.20;;;11.35;;
17872;SDS011;36318;42.620;23.338;2022-09-01T11:20:42;13.10;;;11.52;;
17872;SDS011;36318;42.620;23.338;2022-09-01T11:23:11;13.70;;;11.85;;
17872;SDS011;36318;42.620;23.338;2022-09-01T11:25:45;13.60;;;11.05;;
17872;SDS011;36318;42.620;23.338;2022-09-01T11:31:20;13.63;;;10.73;;
17872;SDS011;36318;42.620;23.338;2022-09-01T11:33:54;17.27;;;11.43;;
17872;SDS011;36318;42.620;23.338;2022-09-01T11:36:29;15.30;;;10.88;;
17872;SDS011;36318;42.620;23.338;2022-09-01T11:39:05;11.60;;;9.55;;
17872;SDS011;36318;42.620;23.338;2022-09-01T11:41:41;10.95;;;9.40;;
17872;SDS011;36318;42.620;23.338;2022-09-01T11:44:17;13.48;;;10.10;;
17872;SDS011;36318;42.620;23.338;2022-09-01T11:46:50;13.25;;;10.13;;
17872;SDS011;36318;42.620;23.338;2022-09-01T11:49:27;11.10;;;9.38;;
17872;SDS011;36318;42.620;23.338;2022-09-01T11:51:55;14.32;;;8.70;;
17872;SDS011;36318;42.620;23.338;2022-09-01T11:54:24;9.98;;;8.95;;
17872;SDS011;36318;42.620;23.338;2022-09-01T11:56:52;10.20;;;8.55;;
17872;SDS011;36318;42.620;23.338;2022-09-01T11:59:29;10.75;;;8.30;;
17872;SDS011;36318;42.620;23.338;2022-09-01T12:01:58;9.23;;;8.23;;
17872;SDS011;36318;42.620;23.338;2022-09-01T12:04:25;14.73;;;9.88;;
17872;SDS011;36318;42.620;23.338;2022-09-01T12:07:00;13.73;;;12.00;;
17872;SDS011;36318;42.620;23.338;2022-09-01T12:09:34;12.15;;;9.25;;
17872;SDS011;36318;42.620;23.338;2022-09-01T12:12:04;13.60;;;9.10;;
17872;SDS011;36318;42.620;23.338;2022-09-01T12:14:33;9.88;;;8.65;;
17872;SDS011;36318;42.620;23.338;2022-09-01T12:17:02;12.95;;;9.52;;
17872;SDS011;36318;42.620;23.338;2022-09-01T12:19:31;10.45;;;9.35;;
17872;SDS011;36318;42.620;23.338;2022-09-01T12:22:00;9.77;;;8.93;;
17872;SDS011;36318;42.620;23.338;2022-09-01T12:24:31;12.55;;;9.68;;
17872;SDS011;36318;42.620;23.338;2022-09-01T12:27:01;10.90;;;9.90;;
17872;SDS011;36318;42.620;23.338;2022-09-01T12:29:29;14.63;;;8.65;;
17872;SDS011;36318;42.620;23.338;2022-09-01T12:31:57;14.52;;;9.93;;
17872;SDS011;36318;42.620;23.338;2022-09-01T12:34:27;12.23;;;10.57;;
17872;SDS011;36318;42.620;23.338;2022-09-01T12:37:04;11.00;;;9.88;;
17872;SDS011;36318;42.620;23.338;2022-09-01T12:39:34;12.93;;;10.13;;
17872;SDS011;36318;42.620;23.338;2022-09-01T12:42:03;13.25;;;9.88;;
17872;SDS011;36318;42.620;23.338;2022-09-01T12:44:33;12.93;;;10.23;;
17872;SDS011;36318;42.620;23.338;2022-09-01T12:47:11;10.82;;;9.65;;
17872;SDS011;36318;42.620;23.338;2022-09-01T12:50:03;12.82;;;10.38;;
17872;SDS011;36318;42.620;23.338;2022-09-01T12:52:31;15.00;;;10.75;;
17872;SDS011;36318;42.620;23.338;2022-09-01T12:55:07;17.35;;;10.60;;
17872;SDS011;36318;42.620;23.338;2022-09-01T12:57:40;14.25;;;10.82;;
17872;SDS011;36318;42.620;23.338;2022-09-01T13:00:14;12.60;;;10.35;;
17872;SDS011;36318;42.620;23.338;2022-09-01T13:02:44;12.70;;;10.75;;
17872;SDS011;36318;42.620;23.338;2022-09-01T13:05:24;12.50;;;10.40;;
17872;SDS011;36318;42.620;23.338;2022-09-01T13:07:53;12.02;;;10.30;;
17872;SDS011;36318;42.620;23.338;2022-09-01T13:10:21;16.15;;;11.40;;
17872;SDS011;36318;42.620;23.338;2022-09-01T13:12:49;19.42;;;10.68;;
17872;SDS011;36318;42.620;23.338;2022-09-01T13:15:17;12.02;;;10.48;;
17872;SDS011;36318;42.620;23.338;2022-09-01T13:17:44;12.45;;;11.15;;
17872;SDS011;36318;42.620;23.338;2022-09-01T13:20:12;13.20;;;11.35;;
17872;SDS011;36318;42.620;23.338;2022-09-01T13:22:41;16.67;;;11.77;;
17872;SDS011;36318;42.620;23.338;2022-09-01T13:25:09;13.18;;;10.98;;
17872;SDS011;36318;42.620;23.338;2022-09-01T13:27:37;14.35;;;11.23;;
17872;SDS011;36318;42.620;23.338;2022-09-01T13:30:08;14.35;;;11.80;;
17872;SDS011;36318;42.620;23.338;2022-09-01T13:32:36;13.50;;;11.65;;
17872;SDS011;36318;42.620;23.338;2022-09-01T13:35:03;15.50;;;12.30;;
17872;SDS011;36318;42.620;23.338;2022-09-01T13:37:30;14.75;;;12.18;;
17872;SDS011;36318;42.620;23.338;2022-09-01T13:39:59;15.47;;;12.00;;
17872;SDS011;36318;42.620;23.338;2022-09-01T13:42:25;14.47;;;12.87;;
17872;SDS011;36318;42.620;23.338;2022-09-01T13:44:52;16.47;;;13.10;;
17872;SDS011;36318;42.620;23.338;2022-09-01T13:47:19;13.40;;;12.07;;
17872;SDS011;36318;42.620;23.338;2022-09-01T13:49:46;13.07;;;11.73;;
17872;SDS011;36318;42.620;23.338;2022-09-01T13:52:12;17.33;;;13.40;;
17872;SDS011;36318;42.620;23.338;2022-09-01T13:54:39;14.93;;;13.33;;
17872;SDS011;36318;42.620;23.338;2022-09-01T13:57:09;15.83;;;13.97;;
17872;SDS011;36318;42.620;23.338;2022-09-01T13:59:38;15.73;;;13.83;;
17872;SDS011;36318;42.620;23.338;2022-09-01T14:02:06;15.37;;;13.80;;
17872;SDS011;36318;42.620;23.338;2022-09-01T14:04:33;19.03;;;15.47;;
17872;SDS011;36318;42.620;23.338;2022-09-01T14:07:00;15.10;;;13.47;;
17872;SDS011;36318;42.620;23.338;2022-09-01T14:09:26;16.07;;;12.40;;
17872;SDS011;36318;42.620;23.338;2022-09-01T14:11:54;14.40;;;13.03;;
17872;SDS011;36318;42.620;23.338;2022-09-01T14:14:22;18.23;;;14.50;;
17872;SDS011;36318;42.620;23.338;2022-09-01T14:16:49;17.07;;;12.77;;
17872;SDS011;36318;42.620;23.338;2022-09-01T14:19:16;12.67;;;11.37;;
17872;SDS011;36318;42.620;23.338;2022-09-01T14:21:43;17.77;;;12.53;;
17872;SDS011;36318;42.620;23.338;2022-09-01T14:24:11;14.33;;;12.20;;
17872;SDS011;36318;42.620;23.338;2022-09-01T14:26:39;13.43;;;11.73;;
17872;SDS011;36318;42.620;23.338;2022-09-01T14:29:06;14.00;;;12.50;;
17872;SDS011;36318;42.620;23.338;2022-09-01T14:31:35;15.10;;;11.77;;
17872;SDS011;36318;42.620;23.338;2022-09-01T14:34:02;13.60;;;12.30;;
17872;SDS011;36318;42.620;23.338;2022-09-01T14:36:29;15.97;;;12.60;;
17872;SDS011;36318;42.620;23.338;2022-09-01T14:38:56;15.17;;;11.93;;
17872;SDS011;36318;42.620;23.338;2022-09-01T14:41:23;14.37;;;11.43;;
17872;SDS011;36318;42.620;23.338;2022-09-01T14:43:50;13.50;;;11.37;;
17872;SDS011;36318;42.620;23.338;2022-09-01T14:46:18;15.77;;;11.77;;